createdAt,value
2018-08-12T00:00:02.461Z,4.27
2018-08-12T00:02:30.732Z,4.10
2018-08-12T00:04:59.116Z,5.47
2018-08-12T00:07:29.176Z,4.60
2018-08-12T00:09:57.957Z,4.93
2018-08-12T00:12:26.315Z,4.47
2018-08-12T00:14:54.710Z,5.17
2018-08-12T00:17:23.162Z,5.60
2018-08-12T00:19:51.409Z,5.83
2018-08-12T00:22:19.734Z,4.50
2018-08-12T00:24:48.801Z,4.50
2018-08-12T00:27:17.114Z,4.80
2018-08-12T00:29:45.441Z,4.57
2018-08-12T00:32:13.813Z,5.53
2018-08-12T00:34:42.100Z,5.40
2018-08-12T00:37:10.396Z,5.10
2018-08-12T00:39:38.758Z,5.30
2018-08-12T00:42:07.072Z,5.40
2018-08-12T00:44:35.418Z,4.90
2018-08-12T00:47:04.647Z,6.20
2018-08-12T00:49:32.958Z,4.90
2018-08-12T00:52:01.435Z,4.90
2018-08-12T00:54:29.771Z,6.00
2018-08-12T00:56:58.196Z,5.83
2018-08-12T00:59:26.511Z,6.27
2018-08-12T01:01:54.863Z,6.08
2018-08-12T01:04:23.309Z,4.90
2018-08-12T01:06:51.604Z,5.10
2018-08-12T01:09:19.998Z,5.70
2018-08-12T01:11:48.396Z,5.67
2018-08-12T01:14:16.700Z,7.13
2018-08-12T01:16:44.960Z,6.00
2018-08-12T01:19:13.360Z,6.10
2018-08-12T01:21:41.739Z,5.93
2018-08-12T01:24:10.147Z,6.60
2018-08-12T01:26:38.513Z,5.20
2018-08-12T01:29:06.800Z,5.57
2018-08-12T01:31:35.222Z,5.43
2018-08-12T01:34:03.513Z,6.17
2018-08-12T01:36:31.760Z,7.83
2018-08-12T01:39:00.213Z,7.17
2018-08-12T01:41:28.511Z,6.93
2018-08-12T01:43:56.871Z,8.13
2018-08-12T01:46:25.205Z,8.30
2018-08-12T01:48:53.548Z,8.40
2018-08-12T01:51:21.858Z,8.70
2018-08-12T01:53:50.190Z,8.97
2018-08-12T01:56:18.483Z,8.87
2018-08-12T01:58:46.794Z,8.77
2018-08-12T02:01:15.128Z,8.37
2018-08-12T02:03:43.805Z,8.57
2018-08-12T02:06:12.102Z,8.90
2018-08-12T02:08:40.616Z,9.95
2018-08-12T02:11:08.908Z,7.67
2018-08-12T02:13:37.200Z,8.10
2018-08-12T02:16:05.472Z,8.30
2018-08-12T02:18:33.793Z,7.77
2018-08-12T02:21:02.136Z,8.07
2018-08-12T02:23:30.387Z,7.87
2018-08-12T02:25:58.737Z,7.93
2018-08-12T02:28:27.040Z,10.07
2018-08-12T02:30:55.322Z,7.83
2018-08-12T02:33:24.212Z,8.53
2018-08-12T02:35:52.502Z,8.20
2018-08-12T02:38:20.777Z,7.27
2018-08-12T02:40:49.072Z,9.63
2018-08-12T02:43:17.357Z,8.70
2018-08-12T02:45:45.660Z,6.47
2018-08-12T02:48:13.948Z,6.95
2018-08-12T02:50:42.342Z,7.93
2018-08-12T02:53:10.602Z,6.50
2018-08-12T02:55:38.892Z,6.67
2018-08-12T02:58:07.202Z,6.00
2018-08-12T03:00:35.480Z,6.00
2018-08-12T03:03:03.755Z,6.77
2018-08-12T03:05:32.048Z,7.93
2018-08-12T03:08:00.356Z,10.43
2018-08-12T03:10:28.750Z,6.50
2018-08-12T03:12:56.994Z,7.40
2018-08-12T03:15:25.338Z,8.73
2018-08-12T03:17:53.620Z,5.90
2018-08-12T03:20:21.946Z,6.60
2018-08-12T03:22:50.270Z,5.90
2018-08-12T03:25:18.564Z,6.30
2018-08-12T03:27:46.867Z,6.83
2018-08-12T03:30:15.235Z,8.07
2018-08-12T03:32:43.565Z,7.40
2018-08-12T03:35:11.857Z,7.78
2018-08-12T03:37:40.271Z,5.87
2018-08-12T03:40:10.562Z,5.43
2018-08-12T03:42:38.934Z,6.67
2018-08-12T03:45:08.027Z,4.80
2018-08-12T03:47:36.368Z,5.80
2018-08-12T03:50:05.830Z,4.67
2018-08-12T03:52:34.210Z,6.57
2018-08-12T03:55:02.484Z,4.77
2018-08-12T03:57:30.844Z,4.60
2018-08-12T03:59:59.243Z,5.27
2018-08-12T04:02:27.582Z,7.90
2018-08-12T04:04:55.795Z,6.27
2018-08-12T04:07:24.298Z,7.03
2018-08-12T04:09:53.021Z,6.00
2018-08-12T04:12:21.346Z,5.30
2018-08-12T04:14:49.668Z,5.57
2018-08-12T04:17:17.940Z,7.10
2018-08-12T04:19:46.251Z,5.53
2018-08-12T04:22:14.587Z,5.33
2018-08-12T04:24:42.925Z,4.93
2018-08-12T04:27:11.308Z,5.60
2018-08-12T04:29:39.738Z,7.30
2018-08-12T04:32:08.332Z,5.93
2018-08-12T04:34:36.658Z,4.53
2018-08-12T04:37:04.981Z,6.10
2018-08-12T04:39:33.341Z,5.13
2018-08-12T04:42:01.763Z,5.53
2018-08-12T04:44:30.124Z,3.70
2018-08-12T04:46:58.405Z,5.57
2018-08-12T04:49:27.315Z,6.20
2018-08-12T04:51:55.681Z,6.77
2018-08-12T04:54:24.009Z,5.87
2018-08-12T04:56:52.308Z,3.83
2018-08-12T04:59:20.640Z,7.37
2018-08-12T05:01:48.956Z,5.13
2018-08-12T05:04:17.312Z,6.17
2018-08-12T05:06:45.599Z,6.20
2018-08-12T05:09:13.971Z,4.43
2018-08-12T05:11:42.357Z,3.67
2018-08-12T05:14:10.730Z,7.00
2018-08-12T05:16:39.076Z,5.37
2018-08-12T05:19:07.413Z,4.43
2018-08-12T05:21:35.727Z,5.90
2018-08-12T05:24:04.986Z,4.47
2018-08-12T05:26:33.311Z,5.80
2018-08-12T05:29:01.594Z,3.50
2018-08-12T05:31:30.225Z,5.30
2018-08-12T05:33:58.755Z,8.27
2018-08-12T05:36:27.079Z,4.80
2018-08-12T05:38:55.418Z,3.83
2018-08-12T05:41:23.894Z,4.40
2018-08-12T05:43:52.200Z,9.00
2018-08-12T05:46:20.520Z,6.70
2018-08-12T05:48:48.919Z,3.60
2018-08-12T05:51:17.261Z,6.03
2018-08-12T05:53:45.546Z,3.70
2018-08-12T05:56:13.880Z,7.87
2018-08-12T05:58:43.336Z,4.80
2018-08-12T06:01:11.726Z,3.87
2018-08-12T06:03:40.025Z,3.17
2018-08-12T06:06:08.352Z,4.60
2018-08-12T06:08:36.672Z,5.27
2018-08-12T06:11:04.989Z,3.43
2018-08-12T06:13:33.278Z,3.37
2018-08-12T06:16:01.603Z,3.37
2018-08-12T06:18:30.156Z,3.40
2018-08-12T06:20:58.482Z,3.07
2018-08-12T06:23:26.855Z,4.27
2018-08-12T06:25:55.243Z,4.33
2018-08-12T06:28:23.657Z,3.87
2018-08-12T06:30:52.013Z,2.07
2018-08-12T06:33:20.570Z,3.27
2018-08-12T06:35:48.975Z,6.63
2018-08-12T06:38:17.275Z,5.47
2018-08-12T06:40:45.599Z,2.87
2018-08-12T06:43:14.639Z,4.20
2018-08-12T06:45:42.997Z,4.67
2018-08-12T06:48:11.349Z,2.87
2018-08-12T06:50:39.709Z,3.97
2018-08-12T06:53:08.048Z,3.70
2018-08-12T06:55:36.373Z,5.27
2018-08-12T06:58:04.831Z,7.93
2018-08-12T07:00:33.376Z,3.27
2018-08-12T07:03:01.862Z,3.87
2018-08-12T07:05:30.248Z,3.47
2018-08-12T07:07:58.595Z,3.77
2018-08-12T07:10:26.919Z,4.23
2018-08-12T07:12:55.389Z,5.03
2018-08-12T07:15:23.751Z,2.90
2018-08-12T07:17:52.063Z,2.70
2018-08-12T07:20:20.436Z,5.57
2018-08-12T07:22:48.851Z,3.37
2018-08-12T07:25:17.220Z,3.60
2018-08-12T07:27:45.537Z,3.33
2018-08-12T07:30:15.638Z,2.50
2018-08-12T07:32:44.005Z,4.25
2018-08-12T07:35:12.631Z,3.20
2018-08-12T07:37:41.351Z,2.53
2018-08-12T07:40:12.705Z,2.67
2018-08-12T07:42:41.151Z,2.40
2018-08-12T07:45:11.341Z,4.53
2018-08-12T07:47:39.902Z,2.87
2018-08-12T07:50:09.114Z,2.13
2018-08-12T07:52:37.594Z,3.37
2018-08-12T07:55:06.591Z,4.27
2018-08-12T07:57:34.967Z,5.40
2018-08-12T08:00:03.703Z,2.67
2018-08-12T08:02:32.183Z,2.57
2018-08-12T08:05:00.642Z,2.33
2018-08-12T08:07:29.038Z,5.73
2018-08-12T08:09:57.404Z,2.03
2018-08-12T08:12:25.665Z,3.00
2018-08-12T08:14:54.134Z,3.83
2018-08-12T08:17:22.625Z,2.90
2018-08-12T08:19:50.995Z,2.17
2018-08-12T08:22:19.503Z,2.40
2018-08-12T08:24:47.912Z,3.10
2018-08-12T08:27:16.268Z,3.60
2018-08-12T08:29:44.697Z,3.50
2018-08-12T08:32:13.159Z,1.87
2018-08-12T08:34:41.423Z,1.63
2018-08-12T08:37:09.812Z,2.50
2018-08-12T08:39:38.191Z,1.73
2018-08-12T08:42:06.505Z,1.40
2018-08-12T08:44:34.901Z,2.33
2018-08-12T08:47:03.228Z,1.40
2018-08-12T08:49:31.603Z,2.90
2018-08-12T08:52:00.018Z,1.90
2018-08-12T08:54:28.447Z,2.93
2018-08-12T08:56:56.933Z,3.00
2018-08-12T08:59:25.223Z,4.07
2018-08-12T09:01:53.558Z,1.43
2018-08-12T09:04:21.957Z,2.50
2018-08-12T09:06:50.392Z,1.83
2018-08-12T09:09:18.824Z,2.13
2018-08-12T09:11:47.220Z,1.50
2018-08-12T09:14:15.691Z,2.37
2018-08-12T09:16:44.037Z,1.20
2018-08-12T09:19:12.454Z,1.50
2018-08-12T09:21:40.954Z,1.60
2018-08-12T09:24:09.268Z,1.40
2018-08-12T09:26:37.642Z,2.20
2018-08-12T09:29:06.083Z,2.00
2018-08-12T09:31:34.518Z,1.67
2018-08-12T09:34:02.841Z,2.47
2018-08-12T09:36:31.253Z,1.20
2018-08-12T09:38:59.669Z,3.37
2018-08-12T09:41:27.958Z,1.23
2018-08-12T09:43:56.300Z,1.57
2018-08-12T09:46:24.611Z,1.03
2018-08-12T09:48:53.123Z,1.77
2018-08-12T09:51:21.489Z,2.10
2018-08-12T09:53:50.010Z,1.17
2018-08-12T09:56:18.311Z,1.30
2018-08-12T09:58:46.702Z,1.60
2018-08-12T10:01:15.105Z,3.03
2018-08-12T10:03:43.650Z,1.60
2018-08-12T10:06:12.020Z,1.37
2018-08-12T10:08:40.948Z,1.20
2018-08-12T10:11:09.427Z,2.40
2018-08-12T10:13:37.825Z,1.50
2018-08-12T10:16:06.327Z,2.63
2018-08-12T10:18:34.787Z,1.13
2018-08-12T10:21:03.274Z,0.80
2018-08-12T10:23:31.778Z,1.90
2018-08-12T10:26:00.124Z,1.00
2018-08-12T10:28:28.487Z,1.20
2018-08-12T10:30:56.882Z,1.87
2018-08-12T10:33:25.183Z,1.37
2018-08-12T10:35:53.513Z,1.43
2018-08-12T10:38:21.919Z,1.90
2018-08-12T10:40:50.339Z,1.07
2018-08-12T10:43:18.654Z,1.30
2018-08-12T10:45:46.984Z,1.20
2018-08-12T10:48:15.341Z,1.07
2018-08-12T10:50:43.686Z,1.63
2018-08-12T10:53:12.057Z,3.12
2018-08-12T10:55:40.471Z,1.37
2018-08-12T10:58:08.896Z,1.70
2018-08-12T11:00:38.256Z,1.27
2018-08-12T11:03:06.924Z,0.97
2018-08-12T11:05:35.383Z,1.20
2018-08-12T11:08:04.680Z,1.75
2018-08-12T11:10:33.084Z,0.90
2018-08-12T11:13:01.526Z,1.67
2018-08-12T11:15:29.887Z,1.10
2018-08-12T11:17:58.648Z,1.00
2018-08-12T11:20:27.741Z,1.13
2018-08-12T11:22:56.094Z,1.77
2018-08-12T11:25:24.620Z,0.93
2018-08-12T11:27:53.050Z,1.00
2018-08-12T11:30:21.482Z,1.43
2018-08-12T11:32:49.969Z,1.00
2018-08-12T11:35:18.366Z,1.30
2018-08-12T11:37:46.872Z,1.33
2018-08-12T11:40:15.834Z,0.73
2018-08-12T11:42:44.365Z,1.50
2018-08-12T11:45:14.153Z,1.37
2018-08-12T11:47:43.200Z,0.90
2018-08-12T11:50:12.278Z,0.73
2018-08-12T11:52:41.730Z,0.70
2018-08-12T11:55:11.554Z,0.57
2018-08-12T11:57:40.690Z,0.60
2018-08-12T12:00:12.254Z,2.10
2018-08-12T12:02:41.218Z,0.83
2018-08-12T12:05:11.355Z,0.53
2018-08-12T12:07:40.331Z,0.50
2018-08-12T12:10:14.114Z,0.67
2018-08-12T12:12:43.574Z,0.70
2018-08-12T12:15:13.003Z,1.67
2018-08-12T12:17:41.407Z,0.97
2018-08-12T12:20:11.340Z,0.40
2018-08-12T12:22:40.487Z,0.50
2018-08-12T12:25:11.339Z,0.93
2018-08-12T12:27:40.205Z,0.77
2018-08-12T12:30:11.294Z,1.90
2018-08-12T12:32:39.899Z,0.53
2018-08-12T12:35:08.249Z,1.43
2018-08-12T12:37:36.965Z,1.87
2018-08-12T12:40:07.432Z,1.30
2018-08-12T12:42:36.275Z,0.50
2018-08-12T12:45:12.624Z,0.50
2018-08-12T12:47:41.334Z,0.60
2018-08-12T12:50:20.064Z,0.70
2018-08-12T12:52:49.364Z,0.60
2018-08-12T12:55:18.573Z,1.13
2018-08-12T12:57:47.258Z,1.03
2018-08-12T13:00:17.154Z,3.37
2018-08-12T13:02:47.119Z,0.50
2018-08-12T13:05:18.574Z,0.88
2018-08-12T13:07:47.785Z,3.30
2018-08-12T13:10:17.004Z,0.47
2018-08-12T13:12:45.745Z,0.70
2018-08-12T13:15:15.439Z,0.60
2018-08-12T13:17:45.102Z,0.77
2018-08-12T13:20:17.234Z,0.80
2018-08-12T13:22:46.924Z,2.33
2018-08-12T13:25:17.179Z,1.43
2018-08-12T13:27:46.333Z,0.63
2018-08-12T13:30:16.016Z,0.87
2018-08-12T13:32:45.402Z,2.10
2018-08-12T13:35:14.184Z,0.70
2018-08-12T13:37:43.314Z,0.63
2018-08-12T13:40:13.624Z,1.10
2018-08-12T13:42:43.403Z,2.60
2018-08-12T13:45:12.663Z,1.27
2018-08-12T13:47:42.774Z,0.80
2018-08-12T13:50:15.635Z,0.70
2018-08-12T13:52:44.380Z,1.13
2018-08-12T13:55:12.712Z,0.60
2018-08-12T13:57:41.106Z,1.27
2018-08-12T14:00:12.294Z,0.55
2018-08-12T14:02:41.623Z,0.60
2018-08-12T14:05:13.035Z,0.30
2018-08-12T14:07:41.587Z,0.70
2018-08-12T14:10:10.900Z,1.47
2018-08-12T14:12:41.351Z,1.03
2018-08-12T14:15:13.758Z,0.70
2018-08-12T14:17:42.965Z,1.07
2018-08-12T14:20:12.395Z,0.50
2018-08-12T14:22:40.916Z,1.20
2018-08-12T14:25:10.472Z,2.07
2018-08-12T14:27:40.021Z,0.80
2018-08-12T14:30:11.464Z,0.53
2018-08-12T14:32:40.250Z,1.00
2018-08-12T14:35:09.078Z,0.50
2018-08-12T14:37:38.080Z,0.70
2018-08-12T14:40:07.678Z,0.50
2018-08-12T14:42:36.463Z,1.23
2018-08-12T14:45:07.280Z,0.70
2018-08-12T14:47:37.048Z,0.80
2018-08-12T14:50:07.044Z,0.87
2018-08-12T14:52:35.391Z,1.60
2018-08-12T14:55:04.250Z,1.10
2018-08-12T14:57:33.836Z,0.50
2018-08-12T15:00:02.379Z,0.60
2018-08-12T15:02:30.738Z,0.70
2018-08-12T15:04:59.122Z,0.77
2018-08-12T15:07:27.840Z,1.37
2018-08-12T15:09:56.596Z,1.83
2018-08-12T15:12:25.159Z,0.73
2018-08-12T15:14:53.885Z,0.90
2018-08-12T15:17:24.128Z,0.73
2018-08-12T15:19:52.779Z,0.73
2018-08-12T15:22:21.273Z,1.00
2018-08-12T15:24:49.866Z,0.83
2018-08-12T15:27:19.032Z,0.63
2018-08-12T15:29:47.444Z,0.60
2018-08-12T15:32:16.107Z,0.80
2018-08-12T15:34:44.807Z,1.77
2018-08-12T15:37:15.030Z,1.43
2018-08-12T15:39:44.141Z,1.10
2018-08-12T15:42:12.829Z,0.90
2018-08-12T15:44:41.137Z,2.43
2018-08-12T15:47:10.627Z,1.70
2018-08-12T15:49:39.234Z,1.30
2018-08-12T15:52:08.004Z,1.10
2018-08-12T15:54:36.491Z,1.03
2018-08-12T15:57:05.148Z,1.10
2018-08-12T15:59:33.485Z,1.70
2018-08-12T16:02:02.090Z,1.57
2018-08-12T16:04:30.425Z,1.20
2018-08-12T16:06:59.040Z,1.00
2018-08-12T16:09:27.415Z,1.97
2018-08-12T16:11:56.076Z,2.20
2018-08-12T16:14:24.808Z,1.23
2018-08-12T16:16:56.024Z,1.87
2018-08-12T16:19:24.400Z,1.20
2018-08-12T16:21:53.456Z,1.23
2018-08-12T16:24:21.932Z,1.63
2018-08-12T16:26:50.682Z,1.40
2018-08-12T16:29:19.851Z,2.20
2018-08-12T16:31:48.606Z,1.30
2018-08-12T16:34:17.435Z,1.70
2018-08-12T16:36:45.915Z,3.00
2018-08-12T16:39:15.080Z,1.70
2018-08-12T16:41:43.914Z,1.40
2018-08-12T16:44:13.310Z,3.23
2018-08-12T16:46:42.070Z,2.23
2018-08-12T16:49:10.673Z,1.70
2018-08-12T16:51:41.952Z,2.50
2018-08-12T16:54:10.325Z,2.67
2018-08-12T16:56:38.763Z,1.73
2018-08-12T16:59:07.255Z,2.37
2018-08-12T17:01:35.586Z,1.40
2018-08-12T17:04:05.962Z,2.63
2018-08-12T17:06:34.339Z,2.10
2018-08-12T17:09:02.766Z,1.97
2018-08-12T17:11:31.549Z,2.10
2018-08-12T17:14:00.314Z,1.53
2018-08-12T17:16:28.639Z,1.77
2018-08-12T17:18:59.692Z,1.60
2018-08-12T17:21:28.262Z,1.37
2018-08-12T17:23:56.939Z,1.50
2018-08-12T17:26:25.821Z,4.10
2018-08-12T17:28:54.855Z,1.60
2018-08-12T17:31:23.599Z,1.43
2018-08-12T17:33:51.993Z,1.80
2018-08-12T17:36:20.493Z,1.20
2018-08-12T17:38:49.758Z,1.33
2018-08-12T17:41:18.143Z,2.10
2018-08-12T17:43:47.176Z,1.43
2018-08-12T17:46:15.912Z,1.50
2018-08-12T17:48:44.284Z,3.10
2018-08-12T17:51:12.992Z,1.80
2018-08-12T17:53:41.491Z,2.70
2018-08-12T17:56:10.303Z,1.70
2018-08-12T17:58:39.095Z,3.77
2018-08-12T18:01:07.530Z,1.87
2018-08-12T18:03:37.732Z,1.40
2018-08-12T18:06:07.792Z,1.87
2018-08-12T18:08:37.580Z,2.47
2018-08-12T18:11:06.438Z,3.10
2018-08-12T18:13:35.208Z,2.17
2018-08-12T18:16:10.306Z,1.87
2018-08-12T18:18:38.736Z,2.13
2018-08-12T18:21:07.908Z,2.73
2018-08-12T18:23:36.334Z,2.60
2018-08-12T18:26:04.742Z,2.03
2018-08-12T18:28:33.871Z,2.23
2018-08-12T18:31:03.852Z,2.43
2018-08-12T18:33:32.621Z,1.77
2018-08-12T18:36:04.463Z,1.77
2018-08-12T18:38:32.816Z,2.70
2018-08-12T18:41:01.295Z,3.00
2018-08-12T18:43:29.608Z,3.17
2018-08-12T18:45:57.982Z,2.13
2018-08-12T18:48:27.916Z,2.47
2018-08-12T18:50:56.312Z,3.63
2018-08-12T18:53:25.162Z,2.40
2018-08-12T18:55:53.603Z,2.40
2018-08-12T18:58:22.891Z,2.55
2018-08-12T19:00:51.286Z,2.03
2018-08-12T19:03:19.693Z,2.90
2018-08-12T19:05:48.789Z,2.83
2018-08-12T19:08:17.622Z,2.27
2018-08-12T19:10:45.982Z,1.90
2018-08-12T19:13:14.453Z,2.40
2018-08-12T19:15:43.741Z,4.50
2018-08-12T19:18:12.111Z,2.40
2018-08-12T19:20:40.917Z,3.30
2018-08-12T19:23:09.725Z,5.22
2018-08-12T19:25:38.591Z,2.40
2018-08-12T19:28:08.283Z,2.63
2018-08-12T19:30:37.055Z,4.80
2018-08-12T19:33:05.442Z,2.90
2018-08-12T19:35:34.132Z,2.93
2018-08-12T19:38:02.444Z,3.40
2018-08-12T19:40:31.630Z,3.57
2018-08-12T19:43:00.019Z,2.50
2018-08-12T19:45:28.766Z,2.63
2018-08-12T19:47:57.153Z,2.53
2018-08-12T19:50:25.489Z,4.50
2018-08-12T19:52:53.881Z,3.37
2018-08-12T19:55:22.536Z,3.70
2018-08-12T19:57:50.828Z,2.83
2018-08-12T20:00:19.129Z,7.60
2018-08-12T20:02:47.804Z,3.00
2018-08-12T20:05:16.191Z,2.50
2018-08-12T20:07:44.815Z,3.30
2018-08-12T20:10:13.148Z,3.07
2018-08-12T20:12:41.764Z,2.67
2018-08-12T20:15:11.273Z,3.90
2018-08-12T20:17:40.015Z,2.50
2018-08-12T20:20:10.758Z,2.93
2018-08-12T20:22:39.578Z,2.47
2018-08-12T20:25:08.155Z,3.67
2018-08-12T20:27:36.988Z,4.90
2018-08-12T20:30:06.979Z,3.63
2018-08-12T20:32:35.541Z,3.20
2018-08-12T20:35:05.311Z,3.37
2018-08-12T20:37:33.739Z,3.03
2018-08-12T20:40:02.569Z,2.93
2018-08-12T20:42:31.157Z,6.57
2018-08-12T20:44:59.840Z,4.03
2018-08-12T20:47:28.372Z,2.70
2018-08-12T20:49:56.686Z,3.07
2018-08-12T20:52:24.997Z,4.77
2018-08-12T20:54:53.276Z,2.50
2018-08-12T20:57:21.789Z,2.80
2018-08-12T20:59:50.128Z,3.03
2018-08-12T21:02:18.584Z,4.83
2018-08-12T21:04:47.016Z,3.07
2018-08-12T21:07:15.356Z,3.07
2018-08-12T21:09:43.804Z,2.87
2018-08-12T21:12:12.179Z,3.13
2018-08-12T21:14:40.607Z,2.70
2018-08-12T21:17:08.941Z,3.00
2018-08-12T21:19:37.262Z,3.97
2018-08-12T21:22:05.724Z,3.27
2018-08-12T21:24:34.113Z,2.93
2018-08-12T21:27:02.521Z,3.07
2018-08-12T21:29:30.840Z,2.87
2018-08-12T21:31:59.180Z,3.60
2018-08-12T21:34:27.467Z,3.47
2018-08-12T21:36:55.858Z,2.40
2018-08-12T21:39:24.395Z,5.10
2018-08-12T21:41:52.740Z,3.47
2018-08-12T21:44:21.229Z,2.60
2018-08-12T21:46:50.544Z,2.50
2018-08-12T21:49:19.100Z,3.67
2018-08-12T21:51:47.453Z,2.90
2018-08-12T21:54:15.791Z,2.90
2018-08-12T21:56:44.103Z,2.77
2018-08-12T21:59:12.410Z,3.40
2018-08-12T22:01:40.780Z,2.50
2018-08-12T22:04:09.114Z,2.37
2018-08-12T22:06:38.418Z,3.03
2018-08-12T22:09:08.528Z,3.17
2018-08-12T22:11:37.700Z,3.10
2018-08-12T22:14:06.330Z,3.27
2018-08-12T22:16:34.798Z,3.20
2018-08-12T22:19:03.154Z,3.13
2018-08-12T22:21:31.621Z,3.60
2018-08-12T22:24:00.175Z,2.43
2018-08-12T22:26:28.539Z,3.10
2018-08-12T22:28:56.862Z,3.07
2018-08-12T22:31:25.214Z,3.20
2018-08-12T22:33:53.575Z,3.30
2018-08-12T22:36:22.266Z,4.33
2018-08-12T22:38:50.735Z,3.17
2018-08-12T22:41:19.095Z,3.20
2018-08-12T22:43:47.418Z,3.80
2018-08-12T22:46:15.742Z,2.93
2018-08-12T22:48:44.104Z,2.40
2018-08-12T22:51:12.495Z,3.42
2018-08-12T22:53:40.865Z,3.60
2018-08-12T22:56:09.769Z,2.67
2018-08-12T22:58:38.083Z,3.03
2018-08-12T23:01:07.679Z,4.00
2018-08-12T23:03:36.015Z,3.23
2018-08-12T23:06:04.757Z,3.83
2018-08-12T23:08:33.123Z,3.50
2018-08-12T23:11:01.612Z,4.17
2018-08-12T23:13:29.885Z,5.50
2018-08-12T23:16:12.218Z,2.50
2018-08-12T23:18:40.645Z,2.43
2018-08-12T23:21:10.767Z,4.73
2018-08-12T23:23:39.705Z,4.80
2018-08-12T23:26:08.182Z,4.13
2018-08-12T23:28:36.452Z,2.63
2018-08-12T23:31:04.732Z,3.87
2018-08-12T23:38:33.265Z,2.30
2018-08-12T23:41:01.620Z,3.60
2018-08-12T23:43:29.972Z,2.40
2018-08-12T23:45:58.817Z,2.50
2018-08-12T23:48:27.560Z,2.40
2018-08-12T23:50:55.879Z,3.80
2018-08-12T23:53:24.476Z,2.90
2018-08-12T23:55:53.537Z,3.63
2018-08-12T23:58:21.926Z,2.62
